sensor_id;sensor_type;location;lat;lon;timestamp;P1;durP1;ratioP1;P2;durP2;ratioP2
48963;SDS011;34776;48.180;16.420;2024-03-08T00:02:02;41.60;;;19.15;;
48963;SDS011;34776;48.180;16.420;2024-03-08T00:04:28;38.40;;;20.20;;
48963;SDS011;34776;48.180;16.420;2024-03-08T00:06:54;39.33;;;20.20;;
48963;SDS011;34776;48.180;16.420;2024-03-08T00:09:20;37.90;;;19.63;;
48963;SDS011;34776;48.180;16.420;2024-03-08T00:11:46;45.28;;;20.38;;
48963;SDS011;34776;48.180;16.420;2024-03-08T00:14:12;42.38;;;20.77;;
48963;SDS011;34776;48.180;16.420;2024-03-08T00:16:37;37.85;;;20.42;;
48963;SDS011;34776;48.180;16.420;2024-03-08T00:19:03;40.20;;;20.73;;
48963;SDS011;34776;48.180;16.420;2024-03-08T00:21:28;41.28;;;19.50;;
48963;SDS011;34776;48.180;16.420;2024-03-08T00:23:54;42.67;;;19.88;;
48963;SDS011;34776;48.180;16.420;2024-03-08T00:26:23;37.45;;;19.88;;
48963;SDS011;34776;48.180;16.420;2024-03-08T00:28:48;38.03;;;18.30;;
48963;SDS011;34776;48.180;16.420;2024-03-08T00:31:14;41.40;;;19.38;;
48963;SDS011;34776;48.180;16.420;2024-03-08T00:33:44;37.67;;;19.70;;
48963;SDS011;34776;48.180;16.420;2024-03-08T00:36:11;36.40;;;19.65;;
48963;SDS011;34776;48.180;16.420;2024-03-08T00:38:36;39.85;;;20.10;;
48963;SDS011;34776;48.180;16.420;2024-03-08T00:41:01;42.00;;;20.38;;
48963;SDS011;34776;48.180;16.420;2024-03-08T00:43:27;37.53;;;19.80;;
48963;SDS011;34776;48.180;16.420;2024-03-08T00:45:52;41.30;;;19.55;;
48963;SDS011;34776;48.180;16.420;2024-03-08T00:48:18;39.08;;;19.45;;
48963;SDS011;34776;48.180;16.420;2024-03-08T00:50:43;40.47;;;20.25;;
48963;SDS011;34776;48.180;16.420;2024-03-08T00:53:12;36.55;;;18.00;;
48963;SDS011;34776;48.180;16.420;2024-03-08T00:55:38;39.83;;;20.08;;
48963;SDS011;34776;48.180;16.420;2024-03-08T00:58:04;38.40;;;21.25;;
48963;SDS011;34776;48.180;16.420;2024-03-08T01:00:31;36.10;;;20.27;;
48963;SDS011;34776;48.180;16.420;2024-03-08T01:02:57;42.42;;;20.80;;
48963;SDS011;34776;48.180;16.420;2024-03-08T01:05:23;46.00;;;22.50;;
48963;SDS011;34776;48.180;16.420;2024-03-08T01:07:49;43.38;;;22.50;;
48963;SDS011;34776;48.180;16.420;2024-03-08T01:10:16;42.95;;;21.45;;
48963;SDS011;34776;48.180;16.420;2024-03-08T01:12:42;40.38;;;20.92;;
48963;SDS011;34776;48.180;16.420;2024-03-08T01:15:10;37.17;;;19.90;;
48963;SDS011;34776;48.180;16.420;2024-03-08T01:17:37;32.63;;;17.73;;
48963;SDS011;34776;48.180;16.420;2024-03-08T01:20:03;42.42;;;21.02;;
48963;SDS011;34776;48.180;16.420;2024-03-08T01:22:30;42.30;;;19.67;;
48963;SDS011;34776;48.180;16.420;2024-03-08T01:24:56;38.75;;;19.45;;
48963;SDS011;34776;48.180;16.420;2024-03-08T01:27:22;43.72;;;21.38;;
48963;SDS011;34776;48.180;16.420;2024-03-08T01:29:48;40.03;;;21.45;;
48963;SDS011;34776;48.180;16.420;2024-03-08T01:32:14;43.72;;;21.40;;
48963;SDS011;34776;48.180;16.420;2024-03-08T01:34:39;40.78;;;21.70;;
48963;SDS011;34776;48.180;16.420;2024-03-08T01:37:06;41.30;;;21.58;;
48963;SDS011;34776;48.180;16.420;2024-03-08T01:39:32;48.15;;;21.98;;
48963;SDS011;34776;48.180;16.420;2024-03-08T01:41:59;38.90;;;20.77;;
48963;SDS011;34776;48.180;16.420;2024-03-08T01:44:25;42.33;;;21.90;;
48963;SDS011;34776;48.180;16.420;2024-03-08T01:46:52;49.50;;;20.13;;
48963;SDS011;34776;48.180;16.420;2024-03-08T01:49:18;38.95;;;21.00;;
48963;SDS011;34776;48.180;16.420;2024-03-08T01:51:50;38.35;;;18.50;;
48963;SDS011;34776;48.180;16.420;2024-03-08T01:54:16;39.92;;;19.38;;
48963;SDS011;34776;48.180;16.420;2024-03-08T01:56:45;41.33;;;21.42;;
48963;SDS011;34776;48.180;16.420;2024-03-08T01:59:11;41.88;;;20.30;;
48963;SDS011;34776;48.180;16.420;2024-03-08T02:01:37;36.13;;;19.05;;
48963;SDS011;34776;48.180;16.420;2024-03-08T02:04:04;41.35;;;20.50;;
48963;SDS011;34776;48.180;16.420;2024-03-08T02:06:32;31.60;;;16.45;;
48963;SDS011;34776;48.180;16.420;2024-03-08T02:08:59;43.05;;;20.17;;
48963;SDS011;34776;48.180;16.420;2024-03-08T02:11:25;43.50;;;21.73;;
48963;SDS011;34776;48.180;16.420;2024-03-08T02:13:55;48.10;;;25.50;;
48963;SDS011;34776;48.180;16.420;2024-03-08T02:16:21;37.88;;;20.70;;
48963;SDS011;34776;48.180;16.420;2024-03-08T02:18:47;36.78;;;18.00;;
48963;SDS011;34776;48.180;16.420;2024-03-08T02:21:14;33.65;;;18.00;;
48963;SDS011;34776;48.180;16.420;2024-03-08T02:23:45;39.15;;;19.58;;
48963;SDS011;34776;48.180;16.420;2024-03-08T02:26:12;35.05;;;17.90;;
48963;SDS011;34776;48.180;16.420;2024-03-08T02:28:37;39.95;;;19.42;;
48963;SDS011;34776;48.180;16.420;2024-03-08T02:31:04;39.85;;;20.35;;
48963;SDS011;34776;48.180;16.420;2024-03-08T02:33:33;41.90;;;19.83;;
48963;SDS011;34776;48.180;16.420;2024-03-08T02:36:00;41.78;;;22.00;;
48963;SDS011;34776;48.180;16.420;2024-03-08T02:38:26;39.20;;;21.33;;
48963;SDS011;34776;48.180;16.420;2024-03-08T02:40:53;40.78;;;20.77;;
48963;SDS011;34776;48.180;16.420;2024-03-08T02:43:22;37.17;;;18.60;;
48963;SDS011;34776;48.180;16.420;2024-03-08T02:45:48;45.15;;;21.17;;
48963;SDS011;34776;48.180;16.420;2024-03-08T02:48:15;35.70;;;18.40;;
48963;SDS011;34776;48.180;16.420;2024-03-08T02:50:41;33.78;;;16.92;;
48963;SDS011;34776;48.180;16.420;2024-03-08T02:53:15;39.15;;;20.17;;
48963;SDS011;34776;48.180;16.420;2024-03-08T02:56:04;36.10;;;19.48;;
48963;SDS011;34776;48.180;16.420;2024-03-08T02:58:33;42.30;;;19.63;;
48963;SDS011;34776;48.180;16.420;2024-03-08T03:01:00;36.83;;;19.88;;
48963;SDS011;34776;48.180;16.420;2024-03-08T03:03:26;46.53;;;20.25;;
48963;SDS011;34776;48.180;16.420;2024-03-08T03:05:52;36.58;;;18.10;;
48963;SDS011;34776;48.180;16.420;2024-03-08T03:08:20;44.72;;;21.00;;
48963;SDS011;34776;48.180;16.420;2024-03-08T03:10:48;28.08;;;16.98;;
48963;SDS011;34776;48.180;16.420;2024-03-08T03:13:14;43.72;;;20.23;;
48963;SDS011;34776;48.180;16.420;2024-03-08T03:15:41;30.10;;;17.92;;
48963;SDS011;34776;48.180;16.420;2024-03-08T03:18:09;43.92;;;20.55;;
48963;SDS011;34776;48.180;16.420;2024-03-08T03:20:39;37.80;;;19.85;;
48963;SDS011;34776;48.180;16.420;2024-03-08T03:23:05;32.40;;;17.42;;
48963;SDS011;34776;48.180;16.420;2024-03-08T03:25:33;38.15;;;19.70;;
48963;SDS011;34776;48.180;16.420;2024-03-08T03:28:05;38.28;;;19.13;;
48963;SDS011;34776;48.180;16.420;2024-03-08T03:30:34;35.58;;;19.38;;
48963;SDS011;34776;48.180;16.420;2024-03-08T03:33:00;43.97;;;20.67;;
48963;SDS011;34776;48.180;16.420;2024-03-08T03:35:28;39.65;;;19.50;;
48963;SDS011;34776;48.180;16.420;2024-03-08T03:37:55;37.28;;;18.58;;
48963;SDS011;34776;48.180;16.420;2024-03-08T03:40:41;41.58;;;20.25;;
48963;SDS011;34776;48.180;16.420;2024-03-08T03:43:06;35.58;;;18.75;;
48963;SDS011;34776;48.180;16.420;2024-03-08T03:45:32;39.03;;;19.80;;
48963;SDS011;34776;48.180;16.420;2024-03-08T03:47:59;30.63;;;15.60;;
48963;SDS011;34776;48.180;16.420;2024-03-08T03:50:27;33.35;;;18.52;;
48963;SDS011;34776;48.180;16.420;2024-03-08T03:52:52;27.40;;;16.02;;
48963;SDS011;34776;48.180;16.420;2024-03-08T03:55:18;32.35;;;17.73;;
48963;SDS011;34776;48.180;16.420;2024-03-08T03:57:45;33.67;;;17.38;;
48963;SDS011;34776;48.180;16.420;2024-03-08T04:00:12;28.33;;;16.13;;
48963;SDS011;34776;48.180;16.420;2024-03-08T04:02:40;30.67;;;16.55;;
48963;SDS011;34776;48.180;16.420;2024-03-08T04:05:11;32.92;;;16.05;;
48963;SDS011;34776;48.180;16.420;2024-03-08T04:07:38;30.05;;;16.60;;
48963;SDS011;34776;48.180;16.420;2024-03-08T04:10:05;35.15;;;18.20;;
48963;SDS011;34776;48.180;16.420;2024-03-08T04:12:32;42.22;;;19.75;;
48963;SDS011;34776;48.180;16.420;2024-03-08T04:14:58;37.40;;;19.77;;
48963;SDS011;34776;48.180;16.420;2024-03-08T04:17:24;39.60;;;17.65;;
48963;SDS011;34776;48.180;16.420;2024-03-08T04:19:52;41.50;;;20.42;;
48963;SDS011;34776;48.180;16.420;2024-03-08T04:22:18;36.35;;;19.55;;
48963;SDS011;34776;48.180;16.420;2024-03-08T04:24:44;33.35;;;17.48;;
48963;SDS011;34776;48.180;16.420;2024-03-08T04:27:13;35.03;;;17.77;;
48963;SDS011;34776;48.180;16.420;2024-03-08T04:29:42;35.80;;;19.08;;
48963;SDS011;34776;48.180;16.420;2024-03-08T04:32:08;38.33;;;20.02;;
48963;SDS011;34776;48.180;16.420;2024-03-08T04:34:35;31.50;;;17.30;;
48963;SDS011;34776;48.180;16.420;2024-03-08T04:37:02;37.45;;;20.38;;
48963;SDS011;34776;48.180;16.420;2024-03-08T04:39:30;35.80;;;19.10;;
48963;SDS011;34776;48.180;16.420;2024-03-08T04:42:01;37.90;;;18.88;;
48963;SDS011;34776;48.180;16.420;2024-03-08T04:44:29;33.90;;;18.67;;
48963;SDS011;34776;48.180;16.420;2024-03-08T04:46:55;33.17;;;16.45;;
48963;SDS011;34776;48.180;16.420;2024-03-08T04:49:20;35.95;;;18.05;;
48963;SDS011;34776;48.180;16.420;2024-03-08T04:51:47;40.05;;;19.52;;
48963;SDS011;34776;48.180;16.420;2024-03-08T04:54:13;34.40;;;16.38;;
48963;SDS011;34776;48.180;16.420;2024-03-08T04:56:38;38.08;;;19.95;;
48963;SDS011;34776;48.180;16.420;2024-03-08T04:59:04;35.30;;;17.85;;
48963;SDS011;34776;48.180;16.420;2024-03-08T05:01:33;29.00;;;17.33;;
48963;SDS011;34776;48.180;16.420;2024-03-08T05:03:58;36.00;;;17.30;;
48963;SDS011;34776;48.180;16.420;2024-03-08T05:06:24;28.08;;;14.68;;
48963;SDS011;34776;48.180;16.420;2024-03-08T05:08:50;36.65;;;19.13;;
48963;SDS011;34776;48.180;16.420;2024-03-08T05:11:16;30.55;;;16.35;;
48963;SDS011;34776;48.180;16.420;2024-03-08T05:13:42;41.63;;;19.38;;
48963;SDS011;34776;48.180;16.420;2024-03-08T05:16:10;35.33;;;18.83;;
48963;SDS011;34776;48.180;16.420;2024-03-08T05:18:35;44.63;;;20.00;;
48963;SDS011;34776;48.180;16.420;2024-03-08T05:21:01;32.38;;;16.27;;
48963;SDS011;34776;48.180;16.420;2024-03-08T05:23:28;36.83;;;18.65;;
48963;SDS011;34776;48.180;16.420;2024-03-08T05:25:55;36.08;;;16.95;;
48963;SDS011;34776;48.180;16.420;2024-03-08T05:28:25;34.65;;;18.38;;
48963;SDS011;34776;48.180;16.420;2024-03-08T05:30:50;36.45;;;17.83;;
48963;SDS011;34776;48.180;16.420;2024-03-08T05:33:16;34.58;;;18.13;;
48963;SDS011;34776;48.180;16.420;2024-03-08T05:35:41;47.35;;;23.77;;
48963;SDS011;34776;48.180;16.420;2024-03-08T05:38:06;49.28;;;23.75;;
48963;SDS011;34776;48.180;16.420;2024-03-08T05:40:32;46.30;;;21.45;;
48963;SDS011;34776;48.180;16.420;2024-03-08T05:42:58;38.03;;;19.38;;
48963;SDS011;34776;48.180;16.420;2024-03-08T05:45:27;44.15;;;20.33;;
48963;SDS011;34776;48.180;16.420;2024-03-08T05:47:52;35.03;;;18.63;;
48963;SDS011;34776;48.180;16.420;2024-03-08T05:50:18;40.78;;;21.40;;
48963;SDS011;34776;48.180;16.420;2024-03-08T05:52:44;41.85;;;21.00;;
48963;SDS011;34776;48.180;16.420;2024-03-08T05:55:10;64.80;;;35.22;;
48963;SDS011;34776;48.180;16.420;2024-03-08T05:57:36;34.10;;;18.88;;
48963;SDS011;34776;48.180;16.420;2024-03-08T06:00:06;37.97;;;19.05;;
48963;SDS011;34776;48.180;16.420;2024-03-08T06:02:31;34.00;;;16.08;;
48963;SDS011;34776;48.180;16.420;2024-03-08T06:04:57;38.97;;;19.50;;
48963;SDS011;34776;48.180;16.420;2024-03-08T06:07:23;38.22;;;19.25;;
48963;SDS011;34776;48.180;16.420;2024-03-08T06:09:48;33.63;;;17.67;;
48963;SDS011;34776;48.180;16.420;2024-03-08T06:12:14;38.05;;;19.08;;
48963;SDS011;34776;48.180;16.420;2024-03-08T06:14:43;40.40;;;22.13;;
48963;SDS011;34776;48.180;16.420;2024-03-08T06:17:14;40.78;;;19.45;;
48963;SDS011;34776;48.180;16.420;2024-03-08T06:19:39;31.02;;;16.83;;
48963;SDS011;34776;48.180;16.420;2024-03-08T06:22:05;28.88;;;16.15;;
48963;SDS011;34776;48.180;16.420;2024-03-08T06:24:31;35.97;;;18.48;;
48963;SDS011;34776;48.180;16.420;2024-03-08T06:26:57;40.72;;;21.35;;
48963;SDS011;34776;48.180;16.420;2024-03-08T06:29:22;30.08;;;16.52;;
48963;SDS011;34776;48.180;16.420;2024-03-08T06:31:48;39.35;;;19.08;;
48963;SDS011;34776;48.180;16.420;2024-03-08T06:34:14;38.70;;;20.70;;
48963;SDS011;34776;48.180;16.420;2024-03-08T06:36:40;40.28;;;21.30;;
48963;SDS011;34776;48.180;16.420;2024-03-08T06:39:06;36.85;;;18.52;;
48963;SDS011;34776;48.180;16.420;2024-03-08T06:41:35;35.83;;;17.63;;
48963;SDS011;34776;48.180;16.420;2024-03-08T06:44:01;35.55;;;17.92;;
48963;SDS011;34776;48.180;16.420;2024-03-08T06:46:26;44.55;;;21.15;;
48963;SDS011;34776;48.180;16.420;2024-03-08T06:48:51;30.95;;;16.42;;
48963;SDS011;34776;48.180;16.420;2024-03-08T06:51:17;38.63;;;19.88;;
48963;SDS011;34776;48.180;16.420;2024-03-08T06:53:43;37.22;;;19.50;;
48963;SDS011;34776;48.180;16.420;2024-03-08T06:56:09;35.00;;;19.02;;
48963;SDS011;34776;48.180;16.420;2024-03-08T06:58:34;39.25;;;18.58;;
48963;SDS011;34776;48.180;16.420;2024-03-08T07:01:00;36.15;;;19.42;;
48963;SDS011;34776;48.180;16.420;2024-03-08T07:03:29;40.05;;;21.13;;
48963;SDS011;34776;48.180;16.420;2024-03-08T07:05:55;39.40;;;20.45;;
48963;SDS011;34776;48.180;16.420;2024-03-08T07:08:24;39.70;;;20.30;;
48963;SDS011;34776;48.180;16.420;2024-03-08T07:10:51;42.67;;;21.33;;
48963;SDS011;34776;48.180;16.420;2024-03-08T07:13:17;44.42;;;22.23;;
48963;SDS011;34776;48.180;16.420;2024-03-08T07:15:43;38.95;;;20.73;;
48963;SDS011;34776;48.180;16.420;2024-03-08T07:18:09;39.22;;;20.52;;
48963;SDS011;34776;48.180;16.420;2024-03-08T07:20:39;35.78;;;20.25;;
48963;SDS011;34776;48.180;16.420;2024-03-08T07:23:04;35.65;;;18.33;;
48963;SDS011;34776;48.180;16.420;2024-03-08T07:25:29;37.25;;;19.75;;
48963;SDS011;34776;48.180;16.420;2024-03-08T07:27:55;38.17;;;19.98;;
48963;SDS011;34776;48.180;16.420;2024-03-08T07:30:24;39.22;;;20.35;;
48963;SDS011;34776;48.180;16.420;2024-03-08T07:33:09;39.13;;;20.20;;
48963;SDS011;34776;48.180;16.420;2024-03-08T07:35:38;43.20;;;21.17;;
48963;SDS011;34776;48.180;16.420;2024-03-08T07:38:07;41.97;;;19.77;;
48963;SDS011;34776;48.180;16.420;2024-03-08T07:40:37;38.40;;;22.17;;
48963;SDS011;34776;48.180;16.420;2024-03-08T07:43:06;33.17;;;17.83;;
48963;SDS011;34776;48.180;16.420;2024-03-08T07:45:31;30.33;;;17.80;;
48963;SDS011;34776;48.180;16.420;2024-03-08T07:47:57;35.95;;;20.67;;
48963;SDS011;34776;48.180;16.420;2024-03-08T07:50:23;37.85;;;19.60;;
48963;SDS011;34776;48.180;16.420;2024-03-08T07:52:48;34.78;;;19.52;;
48963;SDS011;34776;48.180;16.420;2024-03-08T07:55:13;35.95;;;20.55;;
48963;SDS011;34776;48.180;16.420;2024-03-08T07:57:40;38.85;;;20.63;;
48963;SDS011;34776;48.180;16.420;2024-03-08T08:00:05;27.15;;;14.90;;
48963;SDS011;34776;48.180;16.420;2024-03-08T08:02:34;27.73;;;15.95;;
48963;SDS011;34776;48.180;16.420;2024-03-08T08:05:00;33.80;;;19.10;;
48963;SDS011;34776;48.180;16.420;2024-03-08T08:07:26;34.08;;;17.73;;
48963;SDS011;34776;48.180;16.420;2024-03-08T08:09:52;32.85;;;18.48;;
48963;SDS011;34776;48.180;16.420;2024-03-08T08:12:18;43.35;;;21.25;;
48963;SDS011;34776;48.180;16.420;2024-03-08T08:14:43;39.65;;;19.52;;
48963;SDS011;34776;48.180;16.420;2024-03-08T08:17:09;32.47;;;18.73;;
48963;SDS011;34776;48.180;16.420;2024-03-08T08:19:34;27.15;;;16.05;;
48963;SDS011;34776;48.180;16.420;2024-03-08T08:22:04;29.10;;;15.68;;
48963;SDS011;34776;48.180;16.420;2024-03-08T08:24:29;26.45;;;14.20;;
48963;SDS011;34776;48.180;16.420;2024-03-08T08:26:54;28.38;;;15.55;;
48963;SDS011;34776;48.180;16.420;2024-03-08T08:29:20;31.67;;;16.08;;
48963;SDS011;34776;48.180;16.420;2024-03-08T08:31:47;35.40;;;19.35;;
48963;SDS011;34776;48.180;16.420;2024-03-08T08:34:14;31.55;;;17.45;;
48963;SDS011;34776;48.180;16.420;2024-03-08T08:36:40;25.38;;;14.60;;
48963;SDS011;34776;48.180;16.420;2024-03-08T08:39:05;31.13;;;16.15;;
48963;SDS011;34776;48.180;16.420;2024-03-08T08:41:38;39.38;;;21.08;;
48963;SDS011;34776;48.180;16.420;2024-03-08T08:44:03;32.03;;;17.13;;
48963;SDS011;34776;48.180;16.420;2024-03-08T08:46:29;26.15;;;16.60;;
48963;SDS011;34776;48.180;16.420;2024-03-08T08:48:54;33.72;;;17.60;;
48963;SDS011;34776;48.180;16.420;2024-03-08T08:51:19;34.22;;;17.92;;
48963;SDS011;34776;48.180;16.420;2024-03-08T08:53:45;47.95;;;23.05;;
48963;SDS011;34776;48.180;16.420;2024-03-08T08:56:12;38.58;;;20.83;;
48963;SDS011;34776;48.180;16.420;2024-03-08T08:58:41;41.50;;;21.27;;
48963;SDS011;34776;48.180;16.420;2024-03-08T09:01:08;47.90;;;21.63;;
48963;SDS011;34776;48.180;16.420;2024-03-08T09:03:35;40.90;;;20.25;;
48963;SDS011;34776;48.180;16.420;2024-03-08T09:06:05;35.65;;;20.27;;
48963;SDS011;34776;48.180;16.420;2024-03-08T09:08:30;33.67;;;16.88;;
48963;SDS011;34776;48.180;16.420;2024-03-08T09:10:56;35.25;;;16.95;;
48963;SDS011;34776;48.180;16.420;2024-03-08T09:13:21;44.63;;;20.63;;
48963;SDS011;34776;48.180;16.420;2024-03-08T09:15:46;44.22;;;22.48;;
48963;SDS011;34776;48.180;16.420;2024-03-08T09:18:12;46.08;;;21.73;;
48963;SDS011;34776;48.180;16.420;2024-03-08T09:20:37;44.13;;;21.15;;
48963;SDS011;34776;48.180;16.420;2024-03-08T09:23:03;56.95;;;24.42;;
48963;SDS011;34776;48.180;16.420;2024-03-08T09:25:30;43.75;;;21.15;;
48963;SDS011;34776;48.180;16.420;2024-03-08T09:27:56;43.65;;;22.90;;
48963;SDS011;34776;48.180;16.420;2024-03-08T09:30:21;56.55;;;22.45;;
48963;SDS011;34776;48.180;16.420;2024-03-08T09:32:47;40.30;;;20.85;;
48963;SDS011;34776;48.180;16.420;2024-03-08T09:35:12;55.03;;;26.48;;
48963;SDS011;34776;48.180;16.420;2024-03-08T09:37:38;63.22;;;29.90;;
48963;SDS011;34776;48.180;16.420;2024-03-08T09:40:03;47.17;;;23.95;;
48963;SDS011;34776;48.180;16.420;2024-03-08T09:42:34;44.83;;;21.98;;
48963;SDS011;34776;48.180;16.420;2024-03-08T09:45:07;44.72;;;22.05;;
48963;SDS011;34776;48.180;16.420;2024-03-08T09:47:35;48.72;;;23.70;;
48963;SDS011;34776;48.180;16.420;2024-03-08T09:50:05;45.25;;;22.00;;
48963;SDS011;34776;48.180;16.420;2024-03-08T09:52:34;47.80;;;22.25;;
48963;SDS011;34776;48.180;16.420;2024-03-08T09:55:01;49.75;;;24.02;;
48963;SDS011;34776;48.180;16.420;2024-03-08T09:57:29;49.13;;;22.10;;
48963;SDS011;34776;48.180;16.420;2024-03-08T09:59:55;45.47;;;20.85;;
48963;SDS011;34776;48.180;16.420;2024-03-08T10:02:21;43.30;;;20.98;;
48963;SDS011;34776;48.180;16.420;2024-03-08T10:04:46;42.55;;;20.83;;
48963;SDS011;34776;48.180;16.420;2024-03-08T10:07:12;44.15;;;19.75;;
48963;SDS011;34776;48.180;16.420;2024-03-08T10:09:37;43.30;;;21.38;;
48963;SDS011;34776;48.180;16.420;2024-03-08T10:12:04;43.50;;;19.95;;
48963;SDS011;34776;48.180;16.420;2024-03-08T10:14:30;46.90;;;23.23;;
48963;SDS011;34776;48.180;16.420;2024-03-08T10:16:57;44.58;;;20.23;;
48963;SDS011;34776;48.180;16.420;2024-03-08T10:19:26;42.20;;;20.42;;
48963;SDS011;34776;48.180;16.420;2024-03-08T10:21:55;39.85;;;19.77;;
48963;SDS011;34776;48.180;16.420;2024-03-08T10:24:23;42.08;;;19.95;;
48963;SDS011;34776;48.180;16.420;2024-03-08T10:26:53;40.38;;;18.98;;
48963;SDS011;34776;48.180;16.420;2024-03-08T10:29:19;39.97;;;18.85;;
48963;SDS011;34776;48.180;16.420;2024-03-08T10:31:45;41.78;;;19.52;;
48963;SDS011;34776;48.180;16.420;2024-03-08T10:34:10;44.65;;;20.50;;
48963;SDS011;34776;48.180;16.420;2024-03-08T10:36:36;35.25;;;17.52;;
48963;SDS011;34776;48.180;16.420;2024-03-08T10:39:07;29.65;;;15.60;;
48963;SDS011;34776;48.180;16.420;2024-03-08T10:41:48;33.10;;;16.63;;
48963;SDS011;34776;48.180;16.420;2024-03-08T10:47:03;38.88;;;17.02;;
48963;SDS011;34776;48.180;16.420;2024-03-08T10:52:53;32.13;;;16.98;;
48963;SDS011;34776;48.180;16.420;2024-03-08T10:55:25;29.50;;;15.50;;
48963;SDS011;34776;48.180;16.420;2024-03-08T10:57:53;26.70;;;13.23;;
48963;SDS011;34776;48.180;16.420;2024-03-08T11:00:38;29.17;;;15.95;;
48963;SDS011;34776;48.180;16.420;2024-03-08T11:03:04;30.25;;;16.73;;
48963;SDS011;34776;48.180;16.420;2024-03-08T11:08:05;24.92;;;20.13;;
48963;SDS011;34776;48.180;16.420;2024-03-08T11:11:02;23.85;;;18.02;;
48963;SDS011;34776;48.180;16.420;2024-03-08T11:21:43;11.45;;;10.25;;
48963;SDS011;34776;48.180;16.420;2024-03-08T11:24:13;9.40;;;8.18;;
48963;SDS011;34776;48.180;16.420;2024-03-08T11:26:39;9.45;;;8.45;;
48963;SDS011;34776;48.180;16.420;2024-03-08T11:32:06;14.85;;;11.82;;
48963;SDS011;34776;48.180;16.420;2024-03-08T11:34:34;14.10;;;11.80;;
48963;SDS011;34776;48.180;16.420;2024-03-08T11:37:00;15.40;;;13.57;;
48963;SDS011;34776;48.180;16.420;2024-03-08T11:39:36;15.25;;;12.95;;
48963;SDS011;34776;48.180;16.420;2024-03-08T11:42:02;11.60;;;10.05;;
48963;SDS011;34776;48.180;16.420;2024-03-08T11:44:27;14.35;;;11.30;;
48963;SDS011;34776;48.180;16.420;2024-03-08T11:46:53;13.27;;;11.13;;
48963;SDS011;34776;48.180;16.420;2024-03-08T11:49:20;13.10;;;7.30;;
48963;SDS011;34776;48.180;16.420;2024-03-08T11:51:46;13.35;;;7.22;;
48963;SDS011;34776;48.180;16.420;2024-03-08T11:54:16;13.55;;;11.15;;
48963;SDS011;34776;48.180;16.420;2024-03-08T11:56:42;15.18;;;12.68;;
48963;SDS011;34776;48.180;16.420;2024-03-08T11:59:14;11.27;;;7.72;;
48963;SDS011;34776;48.180;16.420;2024-03-08T12:01:40;11.55;;;10.30;;
48963;SDS011;34776;48.180;16.420;2024-03-08T12:04:05;33.42;;;24.58;;
48963;SDS011;34776;48.180;16.420;2024-03-08T12:06:38;27.00;;;21.15;;
48963;SDS011;34776;48.180;16.420;2024-03-08T12:09:08;20.20;;;11.50;;
48963;SDS011;34776;48.180;16.420;2024-03-08T12:11:35;15.93;;;8.57;;
48963;SDS011;34776;48.180;16.420;2024-03-08T12:14:00;17.65;;;14.55;;
48963;SDS011;34776;48.180;16.420;2024-03-08T12:16:26;13.23;;;8.65;;
48963;SDS011;34776;48.180;16.420;2024-03-08T12:18:52;18.50;;;15.43;;
48963;SDS011;34776;48.180;16.420;2024-03-08T12:21:32;16.10;;;10.18;;
48963;SDS011;34776;48.180;16.420;2024-03-08T12:24:06;50.05;;;38.25;;
48963;SDS011;34776;48.180;16.420;2024-03-08T12:26:35;30.60;;;17.75;;
48963;SDS011;34776;48.180;16.420;2024-03-08T12:29:16;19.42;;;14.25;;
48963;SDS011;34776;48.180;16.420;2024-03-08T12:31:51;14.48;;;8.98;;
48963;SDS011;34776;48.180;16.420;2024-03-08T12:34:18;15.48;;;13.75;;
48963;SDS011;34776;48.180;16.420;2024-03-08T12:36:47;16.60;;;10.85;;
48963;SDS011;34776;48.180;16.420;2024-03-08T12:39:18;15.32;;;12.55;;
48963;SDS011;34776;48.180;16.420;2024-03-08T12:42:07;15.70;;;12.95;;
48963;SDS011;34776;48.180;16.420;2024-03-08T12:44:32;16.65;;;9.25;;
48963;SDS011;34776;48.180;16.420;2024-03-08T12:46:57;56.63;;;28.50;;
48963;SDS011;34776;48.180;16.420;2024-03-08T12:49:23;18.00;;;14.43;;
48963;SDS011;34776;48.180;16.420;2024-03-08T12:51:50;15.95;;;8.90;;
48963;SDS011;34776;48.180;16.420;2024-03-08T12:54:17;11.35;;;7.70;;
48963;SDS011;34776;48.180;16.420;2024-03-08T12:56:48;13.95;;;8.98;;
48963;SDS011;34776;48.180;16.420;2024-03-08T12:59:15;12.10;;;7.78;;
48963;SDS011;34776;48.180;16.420;2024-03-08T13:01:41;28.42;;;17.58;;
48963;SDS011;34776;48.180;16.420;2024-03-08T13:04:06;15.35;;;9.30;;
48963;SDS011;34776;48.180;16.420;2024-03-08T13:06:33;13.82;;;10.80;;
48963;SDS011;34776;48.180;16.420;2024-03-08T13:09:00;11.13;;;8.45;;
48963;SDS011;34776;48.180;16.420;2024-03-08T13:11:31;12.02;;;8.52;;
48963;SDS011;34776;48.180;16.420;2024-03-08T13:14:03;11.63;;;9.82;;
48963;SDS011;34776;48.180;16.420;2024-03-08T13:16:30;10.70;;;6.95;;
48963;SDS011;34776;48.180;16.420;2024-03-08T13:18:55;15.30;;;10.10;;
48963;SDS011;34776;48.180;16.420;2024-03-08T13:21:22;12.13;;;9.25;;
48963;SDS011;34776;48.180;16.420;2024-03-08T13:23:49;12.02;;;7.32;;
48963;SDS011;34776;48.180;16.420;2024-03-08T13:26:20;14.52;;;8.50;;
48963;SDS011;34776;48.180;16.420;2024-03-08T13:28:48;10.15;;;5.95;;
48963;SDS011;34776;48.180;16.420;2024-03-08T13:31:18;11.60;;;8.65;;
48963;SDS011;34776;48.180;16.420;2024-03-08T13:33:47;10.93;;;9.18;;
48963;SDS011;34776;48.180;16.420;2024-03-08T13:36:13;12.23;;;10.52;;
48963;SDS011;34776;48.180;16.420;2024-03-08T13:38:48;12.82;;;10.18;;
48963;SDS011;34776;48.180;16.420;2024-03-08T13:41:15;12.68;;;10.45;;
48963;SDS011;34776;48.180;16.420;2024-03-08T13:43:47;13.90;;;12.20;;
48963;SDS011;34776;48.180;16.420;2024-03-08T13:46:16;14.82;;;11.88;;
48963;SDS011;34776;48.180;16.420;2024-03-08T13:48:42;12.05;;;10.75;;
48963;SDS011;34776;48.180;16.420;2024-03-08T13:51:08;14.02;;;12.50;;
48963;SDS011;34776;48.180;16.420;2024-03-08T13:53:36;13.00;;;11.27;;
48963;SDS011;34776;48.180;16.420;2024-03-08T13:56:02;14.88;;;12.13;;
48963;SDS011;34776;48.180;16.420;2024-03-08T13:58:29;13.35;;;11.50;;
48963;SDS011;34776;48.180;16.420;2024-03-08T14:00:54;12.38;;;7.55;;
48963;SDS011;34776;48.180;16.420;2024-03-08T14:03:20;13.25;;;10.63;;
48963;SDS011;34776;48.180;16.420;2024-03-08T14:05:46;14.77;;;12.02;;
48963;SDS011;34776;48.180;16.420;2024-03-08T14:08:14;10.65;;;6.60;;
48963;SDS011;34776;48.180;16.420;2024-03-08T14:10:41;13.02;;;11.25;;
48963;SDS011;34776;48.180;16.420;2024-03-08T14:13:07;13.10;;;8.45;;
48963;SDS011;34776;48.180;16.420;2024-03-08T14:15:34;13.35;;;11.95;;
48963;SDS011;34776;48.180;16.420;2024-03-08T14:18:00;14.43;;;12.52;;
48963;SDS011;34776;48.180;16.420;2024-03-08T14:20:26;13.55;;;11.68;;
48963;SDS011;34776;48.180;16.420;2024-03-08T14:22:55;15.02;;;8.65;;
48963;SDS011;34776;48.180;16.420;2024-03-08T14:25:21;14.52;;;12.32;;
48963;SDS011;34776;48.180;16.420;2024-03-08T14:27:48;13.82;;;12.05;;
48963;SDS011;34776;48.180;16.420;2024-03-08T14:30:14;12.65;;;8.75;;
48963;SDS011;34776;48.180;16.420;2024-03-08T14:32:56;14.45;;;8.88;;